sensor_id;sensor_type;location;lat;lon;timestamp;P1;durP1;ratioP1;P2;durP2;ratioP2
15498;SDS011;7851;52.260;6.030;2022-12-07T00:03:01;6.6;;;3;;
15498;SDS011;7851;52.260;6.030;2022-12-07T00:03:01;3.6;;;2.9;;
15498;SDS011;7851;52.260;6.030;2022-12-07T00:03:01;2.6;;;2.4;;
15498;SDS011;7851;52.260;6.030;2022-12-07T00:03:26;2.7;;;2.5;;
15498;SDS011;7851;52.260;6.030;2022-12-07T00:04:27;3.3;;;2.2;;
15498;SDS011;7851;52.260;6.030;2022-12-07T00:05:29;2.7;;;2.4;;
15498;SDS011;7851;52.260;6.030;2022-12-07T00:06:28;3.6;;;2.6;;
15498;SDS011;7851;52.260;6.030;2022-12-07T00:07:30;3.1;;;2.6;;
15498;SDS011;7851;52.260;6.030;2022-12-07T00:08:30;2.9;;;2.6;;
15498;SDS011;7851;52.260;6.030;2022-12-07T00:09:30;2.9;;;2.4;;
15498;SDS011;7851;52.260;6.030;2022-12-07T00:10:32;6.1;;;2.6;;
15498;SDS011;7851;52.260;6.030;2022-12-07T00:11:32;2.3;;;2.1;;
15498;SDS011;7851;52.260;6.030;2022-12-07T00:12:32;8.3;;;2.5;;
15498;SDS011;7851;52.260;6.030;2022-12-07T00:13:32;2.5;;;2.3;;
15498;SDS011;7851;52.260;6.030;2022-12-07T00:14:34;2.4;;;2.2;;
15498;SDS011;7851;52.260;6.030;2022-12-07T00:15:34;2.7;;;2.3;;
15498;SDS011;7851;52.260;6.030;2022-12-07T00:16:34;3.3;;;2.3;;
15498;SDS011;7851;52.260;6.030;2022-12-07T00:17:34;2.9;;;2.4;;
15498;SDS011;7851;52.260;6.030;2022-12-07T00:18:34;4.8;;;2.6;;
15498;SDS011;7851;52.260;6.030;2022-12-07T00:19:34;3.1;;;2.4;;
15498;SDS011;7851;52.260;6.030;2022-12-07T00:20:34;4;;;2.2;;
15498;SDS011;7851;52.260;6.030;2022-12-07T00:21:37;1.8;;;1.7;;
15498;SDS011;7851;52.260;6.030;2022-12-07T00:22:37;2.7;;;2.2;;
15498;SDS011;7851;52.260;6.030;2022-12-07T00:23:37;3.4;;;2.3;;
15498;SDS011;7851;52.260;6.030;2022-12-07T00:24:37;2.1;;;2;;
15498;SDS011;7851;52.260;6.030;2022-12-07T00:25:37;2.1;;;1.9;;
15498;SDS011;7851;52.260;6.030;2022-12-07T00:26:37;8.9;;;1.9;;
15498;SDS011;7851;52.260;6.030;2022-12-07T00:27:37;5.8;;;2.1;;
15498;SDS011;7851;52.260;6.030;2022-12-07T00:28:37;3.4;;;2;;
15498;SDS011;7851;52.260;6.030;2022-12-07T00:29:37;2.9;;;1.9;;
15498;SDS011;7851;52.260;6.030;2022-12-07T00:30:37;1.9;;;1.8;;
15498;SDS011;7851;52.260;6.030;2022-12-07T00:31:37;2.8;;;2.2;;
15498;SDS011;7851;52.260;6.030;2022-12-07T00:32:37;4.4;;;2.4;;
15498;SDS011;7851;52.260;6.030;2022-12-07T00:33:37;2.4;;;2.2;;
15498;SDS011;7851;52.260;6.030;2022-12-07T00:34:37;3;;;2;;
15498;SDS011;7851;52.260;6.030;2022-12-07T00:35:37;5.1;;;2;;
15498;SDS011;7851;52.260;6.030;2022-12-07T00:36:37;3.6;;;2.4;;
15498;SDS011;7851;52.260;6.030;2022-12-07T00:37:37;2.4;;;2.1;;
15498;SDS011;7851;52.260;6.030;2022-12-07T00:38:37;2.4;;;2.1;;
15498;SDS011;7851;52.260;6.030;2022-12-07T00:39:37;2.5;;;2.2;;
15498;SDS011;7851;52.260;6.030;2022-12-07T00:40:36;2.2;;;2;;
15498;SDS011;7851;52.260;6.030;2022-12-07T00:41:37;2.7;;;1.9;;
15498;SDS011;7851;52.260;6.030;2022-12-07T00:42:37;2.6;;;1.8;;
15498;SDS011;7851;52.260;6.030;2022-12-07T00:43:37;2.6;;;2.1;;
15498;SDS011;7851;52.260;6.030;2022-12-07T00:44:37;4.1;;;2.7;;
15498;SDS011;7851;52.260;6.030;2022-12-07T00:45:37;3.9;;;2.1;;
15498;SDS011;7851;52.260;6.030;2022-12-07T00:46:37;3.4;;;2.5;;
15498;SDS011;7851;52.260;6.030;2022-12-07T00:47:37;2.3;;;2.1;;
15498;SDS011;7851;52.260;6.030;2022-12-07T00:48:37;2.8;;;2.2;;
15498;SDS011;7851;52.260;6.030;2022-12-07T00:49:37;2.4;;;2.1;;
15498;SDS011;7851;52.260;6.030;2022-12-07T00:50:37;2.3;;;2.1;;
15498;SDS011;7851;52.260;6.030;2022-12-07T00:51:37;4.5;;;2.4;;
15498;SDS011;7851;52.260;6.030;2022-12-07T00:52:37;3;;;2.2;;
15498;SDS011;7851;52.260;6.030;2022-12-07T00:53:37;3.7;;;2.4;;
15498;SDS011;7851;52.260;6.030;2022-12-07T00:54:37;3.8;;;2.3;;
15498;SDS011;7851;52.260;6.030;2022-12-07T00:55:37;7.6;;;2.1;;
15498;SDS011;7851;52.260;6.030;2022-12-07T00:56:37;3.3;;;2.3;;
15498;SDS011;7851;52.260;6.030;2022-12-07T00:57:37;3;;;2.1;;
15498;SDS011;7851;52.260;6.030;2022-12-07T00:58:37;2.6;;;2;;
15498;SDS011;7851;52.260;6.030;2022-12-07T00:59:36;2.4;;;2;;
15498;SDS011;7851;52.260;6.030;2022-12-07T01:00:37;2.8;;;2.1;;
15498;SDS011;7851;52.260;6.030;2022-12-07T01:01:37;3.6;;;2.3;;
15498;SDS011;7851;52.260;6.030;2022-12-07T01:02:37;5.8;;;2.4;;
15498;SDS011;7851;52.260;6.030;2022-12-07T01:03:37;2.6;;;2;;
15498;SDS011;7851;52.260;6.030;2022-12-07T01:04:37;4.8;;;1.9;;
15498;SDS011;7851;52.260;6.030;2022-12-07T01:05:37;4;;;2;;
15498;SDS011;7851;52.260;6.030;2022-12-07T01:06:37;1.9;;;1.6;;
15498;SDS011;7851;52.260;6.030;2022-12-07T01:07:37;3.8;;;2.4;;
15498;SDS011;7851;52.260;6.030;2022-12-07T01:08:37;5.3;;;2.1;;
15498;SDS011;7851;52.260;6.030;2022-12-07T01:09:37;1.9;;;1.8;;
15498;SDS011;7851;52.260;6.030;2022-12-07T01:10:36;3;;;1.9;;
15498;SDS011;7851;52.260;6.030;2022-12-07T01:11:37;2.8;;;2.1;;
15498;SDS011;7851;52.260;6.030;2022-12-07T01:12:37;2.6;;;1.9;;
15498;SDS011;7851;52.260;6.030;2022-12-07T01:13:37;2.4;;;1.9;;
15498;SDS011;7851;52.260;6.030;2022-12-07T01:14:36;4.5;;;2;;
15498;SDS011;7851;52.260;6.030;2022-12-07T01:15:38;2.4;;;2.1;;
15498;SDS011;7851;52.260;6.030;2022-12-07T01:16:38;3;;;2;;
15498;SDS011;7851;52.260;6.030;2022-12-07T01:17:37;1.9;;;1.8;;
15498;SDS011;7851;52.260;6.030;2022-12-07T01:18:37;1.8;;;1.7;;
15498;SDS011;7851;52.260;6.030;2022-12-07T01:19:37;1.9;;;1.7;;
15498;SDS011;7851;52.260;6.030;2022-12-07T01:20:37;3.4;;;1.9;;
15498;SDS011;7851;52.260;6.030;2022-12-07T01:21:36;3.4;;;1.8;;
15498;SDS011;7851;52.260;6.030;2022-12-07T01:22:37;2.2;;;1.7;;
15498;SDS011;7851;52.260;6.030;2022-12-07T01:23:37;2.3;;;1.7;;
15498;SDS011;7851;52.260;6.030;2022-12-07T01:24:37;2.4;;;1.7;;
15498;SDS011;7851;52.260;6.030;2022-12-07T01:25:36;4.2;;;2.1;;
15498;SDS011;7851;52.260;6.030;2022-12-07T01:26:37;9.3;;;2.1;;
15498;SDS011;7851;52.260;6.030;2022-12-07T01:27:37;2.3;;;2;;
15498;SDS011;7851;52.260;6.030;2022-12-07T01:28:37;4.3;;;2.3;;
15498;SDS011;7851;52.260;6.030;2022-12-07T01:29:37;2.7;;;1.8;;
15498;SDS011;7851;52.260;6.030;2022-12-07T01:30:37;4.8;;;2.1;;
15498;SDS011;7851;52.260;6.030;2022-12-07T01:31:36;3.6;;;1.8;;
15498;SDS011;7851;52.260;6.030;2022-12-07T01:32:36;4.9;;;1.9;;
15498;SDS011;7851;52.260;6.030;2022-12-07T01:33:37;3.4;;;2.2;;
15498;SDS011;7851;52.260;6.030;2022-12-07T01:34:37;2.7;;;1.9;;
15498;SDS011;7851;52.260;6.030;2022-12-07T01:35:37;3.2;;;1.7;;
15498;SDS011;7851;52.260;6.030;2022-12-07T01:36:36;3.6;;;1.8;;
15498;SDS011;7851;52.260;6.030;2022-12-07T01:37:37;1.9;;;1.6;;
15498;SDS011;7851;52.260;6.030;2022-12-07T01:38:36;2.9;;;1.6;;
15498;SDS011;7851;52.260;6.030;2022-12-07T01:39:37;3.8;;;1.8;;
15498;SDS011;7851;52.260;6.030;2022-12-07T01:40:36;5.2;;;1.8;;
15498;SDS011;7851;52.260;6.030;2022-12-07T01:41:37;5;;;2.1;;
15498;SDS011;7851;52.260;6.030;2022-12-07T01:42:37;2.3;;;1.9;;
15498;SDS011;7851;52.260;6.030;2022-12-07T01:43:37;2.4;;;1.8;;
15498;SDS011;7851;52.260;6.030;2022-12-07T01:45:14;4;;;2;;
15498;SDS011;7851;52.260;6.030;2022-12-07T01:45:38;4.4;;;2;;
15498;SDS011;7851;52.260;6.030;2022-12-07T01:46:37;2;;;1.6;;
15498;SDS011;7851;52.260;6.030;2022-12-07T01:47:36;2;;;1.8;;
15498;SDS011;7851;52.260;6.030;2022-12-07T01:48:37;4.4;;;1.7;;
15498;SDS011;7851;52.260;6.030;2022-12-07T01:49:37;2.9;;;1.8;;
15498;SDS011;7851;52.260;6.030;2022-12-07T01:50:36;5.8;;;2;;
15498;SDS011;7851;52.260;6.030;2022-12-07T01:51:37;3.8;;;2;;
15498;SDS011;7851;52.260;6.030;2022-12-07T01:52:36;4.2;;;2;;
15498;SDS011;7851;52.260;6.030;2022-12-07T01:53:38;4.2;;;1.7;;
15498;SDS011;7851;52.260;6.030;2022-12-07T01:54:36;2.4;;;1.9;;
15498;SDS011;7851;52.260;6.030;2022-12-07T01:55:37;4.7;;;1.9;;
15498;SDS011;7851;52.260;6.030;2022-12-07T01:56:36;3;;;1.7;;
15498;SDS011;7851;52.260;6.030;2022-12-07T01:57:38;3.7;;;1.9;;
15498;SDS011;7851;52.260;6.030;2022-12-07T01:58:37;2.8;;;1.8;;
15498;SDS011;7851;52.260;6.030;2022-12-07T01:59:36;4.9;;;2.1;;
15498;SDS011;7851;52.260;6.030;2022-12-07T02:00:37;5.6;;;2.2;;
15498;SDS011;7851;52.260;6.030;2022-12-07T02:01:37;3.9;;;1.8;;
15498;SDS011;7851;52.260;6.030;2022-12-07T02:02:37;7.4;;;2.2;;
15498;SDS011;7851;52.260;6.030;2022-12-07T02:03:38;2.6;;;2;;
15498;SDS011;7851;52.260;6.030;2022-12-07T02:04:37;4.7;;;1.7;;
15498;SDS011;7851;52.260;6.030;2022-12-07T02:05:37;8.1;;;1.8;;
15498;SDS011;7851;52.260;6.030;2022-12-07T02:06:37;6.7;;;2;;
15498;SDS011;7851;52.260;6.030;2022-12-07T02:07:38;7.6;;;2.1;;
15498;SDS011;7851;52.260;6.030;2022-12-07T02:08:37;3.6;;;2;;
15498;SDS011;7851;52.260;6.030;2022-12-07T02:09:36;7.1;;;2.3;;
15498;SDS011;7851;52.260;6.030;2022-12-07T02:10:36;6.2;;;2.2;;
15498;SDS011;7851;52.260;6.030;2022-12-07T02:11:36;2.3;;;1.6;;
15498;SDS011;7851;52.260;6.030;2022-12-07T02:12:36;1.8;;;1.6;;
15498;SDS011;7851;52.260;6.030;2022-12-07T02:13:38;4.5;;;1.9;;
15498;SDS011;7851;52.260;6.030;2022-12-07T02:14:37;3.9;;;1.8;;
15498;SDS011;7851;52.260;6.030;2022-12-07T02:15:43;6;;;2.2;;
15498;SDS011;7851;52.260;6.030;2022-12-07T02:16:38;2.9;;;1.8;;
15498;SDS011;7851;52.260;6.030;2022-12-07T02:17:37;5.9;;;2;;
15498;SDS011;7851;52.260;6.030;2022-12-07T02:18:46;4.4;;;2;;
15498;SDS011;7851;52.260;6.030;2022-12-07T02:20:37;3.4;;;1.9;;
15498;SDS011;7851;52.260;6.030;2022-12-07T02:21:38;4.2;;;1.8;;
15498;SDS011;7851;52.260;6.030;2022-12-07T02:22:43;3.3;;;2;;
15498;SDS011;7851;52.260;6.030;2022-12-07T02:23:39;4.6;;;1.8;;
15498;SDS011;7851;52.260;6.030;2022-12-07T02:24:42;2;;;1.6;;
15498;SDS011;7851;52.260;6.030;2022-12-07T02:25:41;7.5;;;2;;
15498;SDS011;7851;52.260;6.030;2022-12-07T02:26:42;6;;;1.8;;
15498;SDS011;7851;52.260;6.030;2022-12-07T02:27:38;4.3;;;1.8;;
15498;SDS011;7851;52.260;6.030;2022-12-07T02:28:37;3.2;;;1.8;;
15498;SDS011;7851;52.260;6.030;2022-12-07T02:29:38;2.4;;;1.6;;
15498;SDS011;7851;52.260;6.030;2022-12-07T02:30:38;2.2;;;1.7;;
15498;SDS011;7851;52.260;6.030;2022-12-07T02:31:37;3.2;;;1.9;;
15498;SDS011;7851;52.260;6.030;2022-12-07T02:32:40;3.7;;;1.9;;
15498;SDS011;7851;52.260;6.030;2022-12-07T02:33:39;2.1;;;1.6;;
15498;SDS011;7851;52.260;6.030;2022-12-07T02:34:39;2.7;;;1.9;;
15498;SDS011;7851;52.260;6.030;2022-12-07T02:35:38;9.5;;;2.3;;
15498;SDS011;7851;52.260;6.030;2022-12-07T02:36:38;2.4;;;1.8;;
15498;SDS011;7851;52.260;6.030;2022-12-07T02:37:37;3.2;;;2.1;;
15498;SDS011;7851;52.260;6.030;2022-12-07T02:38:38;4;;;1.9;;
15498;SDS011;7851;52.260;6.030;2022-12-07T02:39:39;3.5;;;1.7;;
15498;SDS011;7851;52.260;6.030;2022-12-07T02:40:38;4.2;;;2;;
15498;SDS011;7851;52.260;6.030;2022-12-07T02:41:37;5.3;;;1.9;;
15498;SDS011;7851;52.260;6.030;2022-12-07T02:42:38;2.1;;;1.8;;
15498;SDS011;7851;52.260;6.030;2022-12-07T02:43:38;2.1;;;1.5;;
15498;SDS011;7851;52.260;6.030;2022-12-07T02:44:37;3;;;1.8;;
15498;SDS011;7851;52.260;6.030;2022-12-07T02:45:37;2.1;;;1.8;;
15498;SDS011;7851;52.260;6.030;2022-12-07T02:46:37;1.9;;;1.6;;
15498;SDS011;7851;52.260;6.030;2022-12-07T02:47:36;4.6;;;1.8;;
15498;SDS011;7851;52.260;6.030;2022-12-07T02:48:36;6.6;;;2.2;;
15498;SDS011;7851;52.260;6.030;2022-12-07T02:49:37;2.8;;;1.9;;
15498;SDS011;7851;52.260;6.030;2022-12-07T02:50:37;3.5;;;1.7;;
15498;SDS011;7851;52.260;6.030;2022-12-07T02:51:38;4.5;;;1.8;;
15498;SDS011;7851;52.260;6.030;2022-12-07T02:52:36;2.7;;;1.8;;
15498;SDS011;7851;52.260;6.030;2022-12-07T02:53:37;3.3;;;1.7;;
15498;SDS011;7851;52.260;6.030;2022-12-07T02:54:36;4.7;;;1.9;;
15498;SDS011;7851;52.260;6.030;2022-12-07T02:55:37;8.1;;;2;;
15498;SDS011;7851;52.260;6.030;2022-12-07T02:56:38;2.6;;;1.8;;
15498;SDS011;7851;52.260;6.030;2022-12-07T02:57:42;3.5;;;1.5;;
15498;SDS011;7851;52.260;6.030;2022-12-07T02:58:39;5.5;;;2;;
15498;SDS011;7851;52.260;6.030;2022-12-07T02:59:39;3.9;;;1.9;;
15498;SDS011;7851;52.260;6.030;2022-12-07T03:00:38;3.2;;;1.6;;
15498;SDS011;7851;52.260;6.030;2022-12-07T03:01:37;5.5;;;1.6;;
15498;SDS011;7851;52.260;6.030;2022-12-07T03:02:39;3;;;1.8;;
15498;SDS011;7851;52.260;6.030;2022-12-07T03:03:37;5.7;;;1.8;;
15498;SDS011;7851;52.260;6.030;2022-12-07T03:04:39;4.1;;;1.6;;
15498;SDS011;7851;52.260;6.030;2022-12-07T03:05:41;6.6;;;2.3;;
15498;SDS011;7851;52.260;6.030;2022-12-07T03:06:38;4;;;1.9;;
15498;SDS011;7851;52.260;6.030;2022-12-07T03:07:37;2.7;;;1.6;;
15498;SDS011;7851;52.260;6.030;2022-12-07T03:08:38;3.6;;;1.7;;
15498;SDS011;7851;52.260;6.030;2022-12-07T03:09:37;3.6;;;1.7;;
15498;SDS011;7851;52.260;6.030;2022-12-07T03:10:38;1.6;;;1.5;;
15498;SDS011;7851;52.260;6.030;2022-12-07T03:11:38;7.1;;;1.7;;
15498;SDS011;7851;52.260;6.030;2022-12-07T03:12:37;2.7;;;1.3;;
15498;SDS011;7851;52.260;6.030;2022-12-07T03:13:38;6.8;;;1.8;;
15498;SDS011;7851;52.260;6.030;2022-12-07T03:14:38;2.9;;;1.7;;
15498;SDS011;7851;52.260;6.030;2022-12-07T03:15:39;3.4;;;1.5;;
15498;SDS011;7851;52.260;6.030;2022-12-07T03:16:37;2.9;;;1.9;;
15498;SDS011;7851;52.260;6.030;2022-12-07T03:17:37;5.2;;;1.6;;
15498;SDS011;7851;52.260;6.030;2022-12-07T03:18:37;4.8;;;1.8;;
15498;SDS011;7851;52.260;6.030;2022-12-07T03:19:36;4.8;;;1.8;;
15498;SDS011;7851;52.260;6.030;2022-12-07T03:20:36;4.9;;;1.9;;
15498;SDS011;7851;52.260;6.030;2022-12-07T03:21:37;3;;;1.9;;
15498;SDS011;7851;52.260;6.030;2022-12-07T03:22:37;6.6;;;2;;
15498;SDS011;7851;52.260;6.030;2022-12-07T03:23:37;5.3;;;1.4;;
15498;SDS011;7851;52.260;6.030;2022-12-07T03:24:38;6.3;;;1.7;;
15498;SDS011;7851;52.260;6.030;2022-12-07T03:25:38;2.6;;;1.7;;
15498;SDS011;7851;52.260;6.030;2022-12-07T03:26:37;3;;;1.6;;
15498;SDS011;7851;52.260;6.030;2022-12-07T03:27:38;3;;;1.7;;
15498;SDS011;7851;52.260;6.030;2022-12-07T03:28:38;3.6;;;1.9;;
15498;SDS011;7851;52.260;6.030;2022-12-07T03:29:38;3.9;;;1.6;;
15498;SDS011;7851;52.260;6.030;2022-12-07T03:30:37;5.4;;;1.8;;
15498;SDS011;7851;52.260;6.030;2022-12-07T03:31:37;3.5;;;1.7;;
15498;SDS011;7851;52.260;6.030;2022-12-07T03:32:37;3.1;;;1.6;;
15498;SDS011;7851;52.260;6.030;2022-12-07T03:33:38;2.3;;;1.5;;
15498;SDS011;7851;52.260;6.030;2022-12-07T03:34:39;2.5;;;1.6;;
15498;SDS011;7851;52.260;6.030;2022-12-07T03:35:37;4.2;;;1.8;;
15498;SDS011;7851;52.260;6.030;2022-12-07T03:36:38;7.7;;;1.8;;
15498;SDS011;7851;52.260;6.030;2022-12-07T03:37:38;3.7;;;1.6;;
15498;SDS011;7851;52.260;6.030;2022-12-07T03:38:38;2.9;;;1.8;;
15498;SDS011;7851;52.260;6.030;2022-12-07T03:39:39;3.2;;;1.9;;
15498;SDS011;7851;52.260;6.030;2022-12-07T03:40:37;6.1;;;2;;
15498;SDS011;7851;52.260;6.030;2022-12-07T03:41:36;8.6;;;1.9;;
15498;SDS011;7851;52.260;6.030;2022-12-07T03:42:36;3.1;;;1.5;;
15498;SDS011;7851;52.260;6.030;2022-12-07T03:43:36;5.3;;;1.7;;
15498;SDS011;7851;52.260;6.030;2022-12-07T03:44:37;4.3;;;1.7;;
15498;SDS011;7851;52.260;6.030;2022-12-07T03:45:38;3.2;;;1.3;;
15498;SDS011;7851;52.260;6.030;2022-12-07T03:46:37;2;;;1.5;;
15498;SDS011;7851;52.260;6.030;2022-12-07T03:47:37;3.8;;;1.6;;
15498;SDS011;7851;52.260;6.030;2022-12-07T03:48:37;2.4;;;1.8;;
15498;SDS011;7851;52.260;6.030;2022-12-07T03:49:37;3.4;;;1.7;;
15498;SDS011;7851;52.260;6.030;2022-12-07T03:50:38;5.9;;;1.5;;
15498;SDS011;7851;52.260;6.030;2022-12-07T03:51:38;3.3;;;1.8;;
15498;SDS011;7851;52.260;6.030;2022-12-07T03:52:38;5.6;;;1.6;;
15498;SDS011;7851;52.260;6.030;2022-12-07T03:53:37;1.8;;;1.2;;
15498;SDS011;7851;52.260;6.030;2022-12-07T03:54:37;6;;;1.6;;
15498;SDS011;7851;52.260;6.030;2022-12-07T03:55:37;1.4;;;1.3;;
15498;SDS011;7851;52.260;6.030;2022-12-07T03:56:36;1.7;;;1.4;;
15498;SDS011;7851;52.260;6.030;2022-12-07T03:57:36;4;;;1.5;;
15498;SDS011;7851;52.260;6.030;2022-12-07T03:58:36;1.8;;;1.4;;
15498;SDS011;7851;52.260;6.030;2022-12-07T03:59:37;3.5;;;1.9;;
15498;SDS011;7851;52.260;6.030;2022-12-07T04:00:36;3.6;;;1.8;;
15498;SDS011;7851;52.260;6.030;2022-12-07T04:01:36;2.4;;;1.4;;
15498;SDS011;7851;52.260;6.030;2022-12-07T04:02:37;3.1;;;1.4;;
15498;SDS011;7851;52.260;6.030;2022-12-07T04:03:36;4.3;;;1.7;;
15498;SDS011;7851;52.260;6.030;2022-12-07T04:04:36;2.6;;;1.7;;
15498;SDS011;7851;52.260;6.030;2022-12-07T04:05:37;3.6;;;1.6;;
15498;SDS011;7851;52.260;6.030;2022-12-07T04:06:37;1.8;;;1.3;;
15498;SDS011;7851;52.260;6.030;2022-12-07T04:07:36;3.6;;;1.8;;
15498;SDS011;7851;52.260;6.030;2022-12-07T04:08:36;3.7;;;1.8;;
15498;SDS011;7851;52.260;6.030;2022-12-07T04:09:36;2.7;;;1.6;;
15498;SDS011;7851;52.260;6.030;2022-12-07T04:10:36;1.8;;;1.3;;
15498;SDS011;7851;52.260;6.030;2022-12-07T04:11:36;4;;;1.5;;
15498;SDS011;7851;52.260;6.030;2022-12-07T04:12:36;3.7;;;1.5;;
15498;SDS011;7851;52.260;6.030;2022-12-07T04:13:36;4.4;;;1.4;;
15498;SDS011;7851;52.260;6.030;2022-12-07T04:14:36;5.6;;;1.9;;
15498;SDS011;7851;52.260;6.030;2022-12-07T04:15:36;5.2;;;1.6;;
15498;SDS011;7851;52.260;6.030;2022-12-07T04:16:36;1.6;;;1.4;;
15498;SDS011;7851;52.260;6.030;2022-12-07T04:17:37;5.2;;;1.7;;
15498;SDS011;7851;52.260;6.030;2022-12-07T04:18:36;3;;;1.7;;
15498;SDS011;7851;52.260;6.030;2022-12-07T04:19:36;2.1;;;1.5;;
15498;SDS011;7851;52.260;6.030;2022-12-07T04:20:37;3.8;;;1.5;;
15498;SDS011;7851;52.260;6.030;2022-12-07T04:21:36;3.1;;;1.6;;
15498;SDS011;7851;52.260;6.030;2022-12-07T04:22:36;24.8;;;1.7;;
15498;SDS011;7851;52.260;6.030;2022-12-07T04:23:36;2.8;;;1.4;;
15498;SDS011;7851;52.260;6.030;2022-12-07T04:24:36;3.2;;;1.6;;
15498;SDS011;7851;52.260;6.030;2022-12-07T04:25:36;4;;;1.5;;
15498;SDS011;7851;52.260;6.030;2022-12-07T04:26:36;1.6;;;1.1;;
15498;SDS011;7851;52.260;6.030;2022-12-07T04:27:36;4;;;1.6;;
15498;SDS011;7851;52.260;6.030;2022-12-07T04:28:36;4.2;;;1.6;;
15498;SDS011;7851;52.260;6.030;2022-12-07T04:29:36;3.8;;;1.6;;
15498;SDS011;7851;52.260;6.030;2022-12-07T04:30:36;3.2;;;1.6;;
15498;SDS011;7851;52.260;6.030;2022-12-07T04:31:37;2.5;;;1.6;;
15498;SDS011;7851;52.260;6.030;2022-12-07T04:32:36;3.4;;;1.6;;
15498;SDS011;7851;52.260;6.030;2022-12-07T04:33:36;3.7;;;1.6;;
15498;SDS011;7851;52.260;6.030;2022-12-07T04:34:36;1.7;;;1.4;;
15498;SDS011;7851;52.260;6.030;2022-12-07T04:35:36;2.1;;;1.5;;
15498;SDS011;7851;52.260;6.030;2022-12-07T04:36:37;2;;;1.7;;
15498;SDS011;7851;52.260;6.030;2022-12-07T04:37:36;2.4;;;1.6;;
15498;SDS011;7851;52.260;6.030;2022-12-07T04:38:36;3.1;;;1.4;;
15498;SDS011;7851;52.260;6.030;2022-12-07T04:39:36;3.5;;;1.6;;
15498;SDS011;7851;52.260;6.030;2022-12-07T04:40:36;1.9;;;1.4;;
15498;SDS011;7851;52.260;6.030;2022-12-07T04:41:36;3.2;;;1.5;;
15498;SDS011;7851;52.260;6.030;2022-12-07T04:42:37;4;;;1.7;;
15498;SDS011;7851;52.260;6.030;2022-12-07T04:43:37;5.4;;;1.2;;
15498;SDS011;7851;52.260;6.030;2022-12-07T04:44:36;1.5;;;1.1;;
15498;SDS011;7851;52.260;6.030;2022-12-07T04:45:36;2.1;;;1.3;;
15498;SDS011;7851;52.260;6.030;2022-12-07T04:46:36;1.5;;;1.4;;
15498;SDS011;7851;52.260;6.030;2022-12-07T04:47:36;6.2;;;1.9;;
15498;SDS011;7851;52.260;6.030;2022-12-07T04:48:36;2.7;;;1.5;;
15498;SDS011;7851;52.260;6.030;2022-12-07T04:49:36;3.6;;;1.6;;
15498;SDS011;7851;52.260;6.030;2022-12-07T04:50:36;1.3;;;1.2;;
15498;SDS011;7851;52.260;6.030;2022-12-07T04:51:36;2.7;;;1.4;;
15498;SDS011;7851;52.260;6.030;2022-12-07T04:52:36;5;;;1.7;;
15498;SDS011;7851;52.260;6.030;2022-12-07T04:53:36;3.4;;;1.7;;
15498;SDS011;7851;52.260;6.030;2022-12-07T04:54:36;4.8;;;1.8;;
15498;SDS011;7851;52.260;6.030;2022-12-07T04:55:36;3.9;;;1.7;;
15498;SDS011;7851;52.260;6.030;2022-12-07T04:56:37;8.1;;;1.8;;
15498;SDS011;7851;52.260;6.030;2022-12-07T04:57:36;3.1;;;1.7;;
15498;SDS011;7851;52.260;6.030;2022-12-07T04:58:36;2.4;;;1.3;;
15498;SDS011;7851;52.260;6.030;2022-12-07T04:59:36;1.5;;;1.4;;
15498;SDS011;7851;52.260;6.030;2022-12-07T05:00:36;2.7;;;1.5;;
15498;SDS011;7851;52.260;6.030;2022-12-07T05:01:36;2.3;;;1.4;;
15498;SDS011;7851;52.260;6.030;2022-12-07T05:02:36;3.1;;;1.5;;
15498;SDS011;7851;52.260;6.030;2022-12-07T05:03:37;3.7;;;1.7;;
15498;SDS011;7851;52.260;6.030;2022-12-07T05:04:36;1.9;;;1.4;;
15498;SDS011;7851;52.260;6.030;2022-12-07T05:05:39;5.9;;;1.9;;
15498;SDS011;7851;52.260;6.030;2022-12-07T05:06:36;5.1;;;1.8;;
15498;SDS011;7851;52.260;6.030;2022-12-07T05:07:36;3;;;1.8;;
15498;SDS011;7851;52.260;6.030;2022-12-07T05:08:37;2;;;1.4;;
15498;SDS011;7851;52.260;6.030;2022-12-07T05:09:36;6.2;;;1.6;;
15498;SDS011;7851;52.260;6.030;2022-12-07T05:10:36;3.8;;;1.7;;
15498;SDS011;7851;52.260;6.030;2022-12-07T05:11:36;6.3;;;1.7;;
15498;SDS011;7851;52.260;6.030;2022-12-07T05:12:36;4.6;;;1.9;;
15498;SDS011;7851;52.260;6.030;2022-12-07T05:13:36;5.8;;;2.1;;
15498;SDS011;7851;52.260;6.030;2022-12-07T05:14:36;3.3;;;1.4;;
15498;SDS011;7851;52.260;6.030;2022-12-07T05:15:36;4;;;1.7;;
15498;SDS011;7851;52.260;6.030;2022-12-07T05:16:36;4.4;;;1.7;;
15498;SDS011;7851;52.260;6.030;2022-12-07T05:17:36;5;;;1.7;;
15498;SDS011;7851;52.260;6.030;2022-12-07T05:18:36;3.5;;;1.6;;
15498;SDS011;7851;52.260;6.030;2022-12-07T05:19:36;5.8;;;1.9;;
15498;SDS011;7851;52.260;6.030;2022-12-07T05:20:36;3.8;;;1.6;;
15498;SDS011;7851;52.260;6.030;2022-12-07T05:21:37;2.5;;;1.2;;
15498;SDS011;7851;52.260;6.030;2022-12-07T05:22:38;2.2;;;1.4;;
15498;SDS011;7851;52.260;6.030;2022-12-07T05:23:38;2;;;1.4;;
15498;SDS011;7851;52.260;6.030;2022-12-07T05:24:38;2.6;;;1.5;;
15498;SDS011;7851;52.260;6.030;2022-12-07T05:25:38;4.7;;;1.6;;
15498;SDS011;7851;52.260;6.030;2022-12-07T05:26:38;2.7;;;1.7;;
15498;SDS011;7851;52.260;6.030;2022-12-07T05:27:38;4.8;;;1.6;;
15498;SDS011;7851;52.260;6.030;2022-12-07T05:28:38;2.6;;;1.5;;
15498;SDS011;7851;52.260;6.030;2022-12-07T05:29:38;3.9;;;1.5;;
15498;SDS011;7851;52.260;6.030;2022-12-07T05:30:38;7.4;;;1.5;;
15498;SDS011;7851;52.260;6.030;2022-12-07T05:31:38;4.3;;;1.5;;
15498;SDS011;7851;52.260;6.030;2022-12-07T05:32:38;6.2;;;1.8;;
15498;SDS011;7851;52.260;6.030;2022-12-07T05:33:38;4;;;1.5;;
15498;SDS011;7851;52.260;6.030;2022-12-07T05:34:38;3.8;;;1.5;;
15498;SDS011;7851;52.260;6.030;2022-12-07T05:35:38;3.5;;;1.5;;
15498;SDS011;7851;52.260;6.030;2022-12-07T05:36:39;1.1;;;1;;
15498;SDS011;7851;52.260;6.030;2022-12-07T05:37:39;3.3;;;1.4;;
15498;SDS011;7851;52.260;6.030;2022-12-07T05:38:38;2.1;;;1.2;;
15498;SDS011;7851;52.260;6.030;2022-12-07T05:39:38;6.5;;;1.4;;
15498;SDS011;7851;52.260;6.030;2022-12-07T05:40:38;3.5;;;1.9;;
15498;SDS011;7851;52.260;6.030;2022-12-07T05:41:38;5;;;1.7;;
15498;SDS011;7851;52.260;6.030;2022-12-07T05:42:39;2.5;;;1.5;;
15498;SDS011;7851;52.260;6.030;2022-12-07T05:43:38;4;;;1.7;;
15498;SDS011;7851;52.260;6.030;2022-12-07T05:44:39;6;;;1.6;;
15498;SDS011;7851;52.260;6.030;2022-12-07T05:45:38;3.4;;;1.5;;
15498;SDS011;7851;52.260;6.030;2022-12-07T05:46:38;3.4;;;1.3;;
15498;SDS011;7851;52.260;6.030;2022-12-07T05:47:38;1.7;;;1.3;;
15498;SDS011;7851;52.260;6.030;2022-12-07T05:48:38;4.4;;;1.5;;
15498;SDS011;7851;52.260;6.030;2022-12-07T05:49:38;1.6;;;1.2;;
15498;SDS011;7851;52.260;6.030;2022-12-07T05:50:38;2.6;;;1.5;;
15498;SDS011;7851;52.260;6.030;2022-12-07T05:51:38;3.1;;;1.3;;
15498;SDS011;7851;52.260;6.030;2022-12-07T05:52:38;2.6;;;1.5;;
15498;SDS011;7851;52.260;6.030;2022-12-07T05:53:38;6.9;;;1.6;;
15498;SDS011;7851;52.260;6.030;2022-12-07T05:54:38;4.8;;;1.6;;
15498;SDS011;7851;52.260;6.030;2022-12-07T05:55:38;5.8;;;1.4;;
15498;SDS011;7851;52.260;6.030;2022-12-07T05:56:38;3.6;;;1.5;;
15498;SDS011;7851;52.260;6.030;2022-12-07T05:57:38;1.9;;;1.5;;
15498;SDS011;7851;52.260;6.030;2022-12-07T05:58:38;2.7;;;1.3;;
15498;SDS011;7851;52.260;6.030;2022-12-07T05:59:38;10.9;;;1.8;;
15498;SDS011;7851;52.260;6.030;2022-12-07T06:00:38;3;;;1.4;;
15498;SDS011;7851;52.260;6.030;2022-12-07T06:01:38;4.4;;;1.5;;
15498;SDS011;7851;52.260;6.030;2022-12-07T06:02:38;2.9;;;1.7;;
15498;SDS011;7851;52.260;6.030;2022-12-07T06:03:38;3;;;1.4;;
15498;SDS011;7851;52.260;6.030;2022-12-07T06:04:39;5.9;;;1.8;;
15498;SDS011;7851;52.260;6.030;2022-12-07T06:05:38;4.9;;;1.7;;
15498;SDS011;7851;52.260;6.030;2022-12-07T06:06:38;3.2;;;1.4;;
15498;SDS011;7851;52.260;6.030;2022-12-07T06:07:38;3.1;;;1.7;;
15498;SDS011;7851;52.260;6.030;2022-12-07T06:08:38;3;;;1.5;;
15498;SDS011;7851;52.260;6.030;2022-12-07T06:09:38;6.8;;;2;;
15498;SDS011;7851;52.260;6.030;2022-12-07T06:10:38;3.4;;;1.5;;
15498;SDS011;7851;52.260;6.030;2022-12-07T06:11:38;5;;;1.5;;
15498;SDS011;7851;52.260;6.030;2022-12-07T06:12:38;4.6;;;1.6;;
15498;SDS011;7851;52.260;6.030;2022-12-07T06:13:38;2.9;;;1.4;;
15498;SDS011;7851;52.260;6.030;2022-12-07T06:14:38;4.1;;;1.6;;
15498;SDS011;7851;52.260;6.030;2022-12-07T06:15:38;2.3;;;1.2;;
15498;SDS011;7851;52.260;6.030;2022-12-07T06:16:38;6.1;;;1.4;;
15498;SDS011;7851;52.260;6.030;2022-12-07T06:17:38;3.9;;;1.5;;
15498;SDS011;7851;52.260;6.030;2022-12-07T06:18:38;3.2;;;1.5;;
15498;SDS011;7851;52.260;6.030;2022-12-07T06:19:39;1.6;;;1.2;;
15498;SDS011;7851;52.260;6.030;2022-12-07T06:20:38;4.1;;;1.5;;
15498;SDS011;7851;52.260;6.030;2022-12-07T06:21:38;3.3;;;1.6;;
15498;SDS011;7851;52.260;6.030;2022-12-07T06:22:38;3.4;;;1.3;;